Time,TemperatureF,DewpointF,PressureIn,WindDirection,WindDirectionDegrees,WindSpeedMPH,WindSpeedGustMPH,Humidity,HourlyPrecipIn,Conditions,Clouds,dailyrainin,SolarRadiationWatts/m^2,SoftwareType,DateUTC
2013-04-21 00:02:00,74.0,60.0,-100.00,ENE,64,2.0,7.0,62,0.00,,,0.00,0.000000,,2013-04-21 10:02:00,
2013-04-21 00:12:00,74.0,60.0,-100.00,ENE,64,2.0,7.0,62,0.00,,,0.00,0.000000,,2013-04-21 10:12:00,
2013-04-21 00:42:00,73.0,58.0,-100.00,ESE,106,2.0,6.0,59,0.00,,,0.00,0.000000,,2013-04-21 10:42:00,
2013-04-21 00:52:00,73.0,58.0,-100.00,ESE,106,2.0,6.0,59,0.00,,,0.00,0.000000,,2013-04-21 10:52:00,
2013-04-21 01:02:00,73.0,58.0,-100.00,ESE,106,2.0,6.0,59,0.00,,,0.00,0.000000,,2013-04-21 11:02:00,
2013-04-21 01:11:00,73.0,58.0,-100.00,ESE,106,2.0,6.0,59,0.00,,,0.00,0.000000,,2013-04-21 11:11:00,
2013-04-21 01:21:00,73.0,58.0,-100.00,ESE,106,2.0,6.0,59,0.00,,,0.00,0.000000,,2013-04-21 11:21:00,
2013-04-21 01:22:00,72.0,57.0,-100.00,ESE,105,2.0,5.0,60,0.00,,,0.00,0.000000,,2013-04-21 11:22:00,
2013-04-21 01:42:00,72.0,57.0,-100.00,ESE,105,2.0,5.0,60,0.00,,,0.00,0.000000,,2013-04-21 11:42:00,
2013-04-21 01:52:00,72.0,57.0,-100.00,ESE,105,2.0,5.0,60,0.00,,,0.00,0.000000,,2013-04-21 11:52:00,
2013-04-21 02:02:00,72.0,57.0,-100.00,ESE,105,2.0,5.0,60,0.00,,,0.00,0.000000,,2013-04-21 12:02:00,
2013-04-21 02:12:00,72.0,57.0,-100.00,ESE,105,2.0,5.0,60,0.00,,,0.00,0.000000,,2013-04-21 12:12:00,
2013-04-21 02:42:00,71.0,56.0,-100.00,East,80,2.0,5.0,59,0.00,,,0.00,0.000000,,2013-04-21 12:42:00,
2013-04-21 02:52:00,71.0,56.0,-100.00,East,80,2.0,5.0,59,0.00,,,0.00,0.000000,,2013-04-21 12:52:00,
2013-04-21 03:01:00,71.0,56.0,-100.00,East,80,2.0,5.0,59,0.00,,,0.00,0.000000,,2013-04-21 13:01:00,
2013-04-21 03:11:00,71.0,56.0,-100.00,East,80,2.0,5.0,59,0.00,,,0.00,0.000000,,2013-04-21 13:11:00,
2013-04-21 03:21:00,71.0,56.0,-100.00,East,80,2.0,5.0,59,0.00,,,0.00,0.000000,,2013-04-21 13:21:00,
2013-04-21 03:42:00,70.0,54.0,-100.00,East,82,3.0,6.0,57,0.00,,,0.00,0.000000,,2013-04-21 13:42:00,
2013-04-21 03:52:00,70.0,54.0,-100.00,East,82,3.0,6.0,57,0.00,,,0.00,0.000000,,2013-04-21 13:52:00,
2013-04-21 04:01:00,70.0,54.0,-100.00,East,82,3.0,6.0,57,0.00,,,0.00,0.000000,,2013-04-21 14:01:00,
2013-04-21 04:11:00,70.0,54.0,-100.00,East,82,3.0,6.0,57,0.00,,,0.00,0.000000,,2013-04-21 14:11:00,
2013-04-21 04:21:00,70.0,54.0,-100.00,East,82,3.0,6.0,57,0.00,,,0.00,0.000000,,2013-04-21 14:21:00,
2013-04-21 04:22:00,70.0,54.0,-100.00,East,84,3.0,6.0,57,0.00,,,0.00,0.000000,,2013-04-21 14:22:00,
2013-04-21 04:42:00,70.0,54.0,-100.00,East,84,3.0,6.0,57,0.00,,,0.00,0.000000,,2013-04-21 14:42:00,
2013-04-21 04:52:00,70.0,54.0,-100.00,East,84,3.0,6.0,57,0.00,,,0.00,0.000000,,2013-04-21 14:52:00,
2013-04-21 05:02:00,70.0,54.0,-100.00,East,84,3.0,6.0,57,0.00,,,0.00,0.000000,,2013-04-21 15:02:00,
2013-04-21 05:11:00,70.0,54.0,-100.00,East,84,3.0,6.0,57,0.00,,,0.00,0.000000,,2013-04-21 15:11:00,
2013-04-21 05:22:00,70.0,53.0,-100.00,East,87,3.0,5.0,54,0.00,,,0.00,0.000000,,2013-04-21 15:22:00,
2013-04-21 05:43:00,70.0,53.0,-100.00,East,87,3.0,5.0,54,0.00,,,0.00,0.000000,,2013-04-21 15:43:00,
2013-04-21 05:53:00,70.0,53.0,-100.00,East,87,3.0,5.0,54,0.00,,,0.00,0.000000,,2013-04-21 15:53:00,
2013-04-21 06:03:00,70.0,53.0,-100.00,East,87,3.0,5.0,54,0.00,,,0.00,0.000000,,2013-04-21 16:03:00,
2013-04-21 06:12:00,70.0,53.0,-100.00,East,87,3.0,5.0,54,0.00,,,0.00,0.000000,,2013-04-21 16:12:00,
2013-04-21 06:22:00,70.0,54.0,-100.00,East,94,3.0,7.0,57,0.00,,,0.00,0.000000,,2013-04-21 16:22:00,
2013-04-21 06:42:00,70.0,54.0,-100.00,East,94,3.0,7.0,57,0.00,,,0.00,0.000000,,2013-04-21 16:42:00,
2013-04-21 06:52:00,70.0,54.0,-100.00,East,94,3.0,7.0,57,0.00,,,0.00,0.000000,,2013-04-21 16:52:00,
2013-04-21 07:02:00,70.0,54.0,-100.00,East,94,3.0,7.0,57,0.00,,,0.00,0.000000,,2013-04-21 17:02:00,
2013-04-21 07:12:00,70.0,54.0,-100.00,East,94,3.0,7.0,57,0.00,,,0.00,0.000000,,2013-04-21 17:12:00,
2013-04-21 07:42:00,70.0,52.0,-100.00,East,98,3.0,7.0,53,0.00,,,0.00,47.000000,,2013-04-21 17:42:00,
2013-04-21 07:52:00,70.0,52.0,-100.00,East,98,3.0,7.0,53,0.00,,,0.00,47.000000,,2013-04-21 17:52:00,
2013-04-21 08:02:00,70.0,52.0,-100.00,East,98,3.0,7.0,53,0.00,,,0.00,47.000000,,2013-04-21 18:02:00,
2013-04-21 08:11:00,70.0,52.0,-100.00,East,98,3.0,7.0,53,0.00,,,0.00,47.000000,,2013-04-21 18:11:00,
2013-04-21 08:21:00,70.0,52.0,-100.00,East,98,3.0,7.0,53,0.00,,,0.00,47.000000,,2013-04-21 18:21:00,
2013-04-21 08:42:00,76.0,62.0,-100.00,ESE,112,2.0,6.0,62,0.00,,,0.00,226.000000,,2013-04-21 18:42:00,
2013-04-21 08:52:00,76.0,62.0,-100.00,ESE,112,2.0,6.0,62,0.00,,,0.00,226.000000,,2013-04-21 18:52:00,
2013-04-21 09:02:00,76.0,62.0,-100.00,ESE,112,2.0,6.0,62,0.00,,,0.00,226.000000,,2013-04-21 19:02:00,
2013-04-21 09:11:00,76.0,62.0,-100.00,ESE,112,2.0,6.0,62,0.00,,,0.00,226.000000,,2013-04-21 19:11:00,
2013-04-21 09:21:00,76.0,62.0,-100.00,ESE,112,2.0,6.0,62,0.00,,,0.00,226.000000,,2013-04-21 19:21:00,
2013-04-21 09:43:00,76.0,63.0,-100.00,SSW,198,3.0,8.0,65,0.00,,,0.00,326.000000,,2013-04-21 19:43:00,
2013-04-21 09:52:00,76.0,63.0,-100.00,SSW,198,3.0,8.0,65,0.00,,,0.00,326.000000,,2013-04-21 19:52:00,
2013-04-21 10:01:00,76.0,63.0,-100.00,SSW,198,3.0,8.0,65,0.00,,,0.00,326.000000,,2013-04-21 20:01:00,
2013-04-21 10:11:00,76.0,63.0,-100.00,SSW,198,3.0,8.0,65,0.00,,,0.00,326.000000,,2013-04-21 20:11:00,
2013-04-21 10:21:00,76.0,63.0,-100.00,SSW,198,3.0,8.0,65,0.00,,,0.00,326.000000,,2013-04-21 20:21:00,
2013-04-21 10:42:00,78.0,62.0,-100.00,WSW,239,3.0,8.0,59,0.00,,,0.00,651.000000,,2013-04-21 20:42:00,
2013-04-21 10:52:00,78.0,62.0,-100.00,WSW,239,3.0,8.0,59,0.00,,,0.00,651.000000,,2013-04-21 20:52:00,
2013-04-21 11:02:00,78.0,62.0,-100.00,WSW,239,3.0,8.0,59,0.00,,,0.00,651.000000,,2013-04-21 21:02:00,
2013-04-21 11:12:00,78.0,62.0,-100.00,WSW,239,3.0,8.0,59,0.00,,,0.00,651.000000,,2013-04-21 21:12:00,
2013-04-21 11:21:00,78.0,62.0,-100.00,WSW,239,3.0,8.0,59,0.00,,,0.00,651.000000,,2013-04-21 21:21:00,
2013-04-21 11:22:00,79.0,64.0,-100.00,West,273,4.0,11.0,61,0.00,,,0.00,810.000000,,2013-04-21 21:22:00,
2013-04-21 11:43:00,79.0,64.0,-100.00,West,273,4.0,11.0,61,0.00,,,0.00,810.000000,,2013-04-21 21:43:00,
2013-04-21 11:53:00,79.0,64.0,-100.00,West,273,4.0,11.0,61,0.00,,,0.00,810.000000,,2013-04-21 21:53:00,
2013-04-21 12:02:00,79.0,64.0,-100.00,West,273,4.0,11.0,61,0.00,,,0.00,810.000000,,2013-04-21 22:02:00,
2013-04-21 12:12:00,79.0,64.0,-100.00,West,273,4.0,11.0,61,0.00,,,0.00,810.000000,,2013-04-21 22:12:00,
2013-04-21 12:22:00,81.0,65.0,-100.00,West,265,6.0,11.0,58,0.00,,,0.00,936.000000,,2013-04-21 22:22:00,
2013-04-21 12:43:00,81.0,65.0,-100.00,West,265,6.0,11.0,58,0.00,,,0.00,936.000000,,2013-04-21 22:43:00,
2013-04-21 12:52:00,81.0,65.0,-100.00,West,265,6.0,11.0,58,0.00,,,0.00,936.000000,,2013-04-21 22:52:00,
2013-04-21 13:02:00,81.0,65.0,-100.00,West,265,6.0,11.0,58,0.00,,,0.00,936.000000,,2013-04-21 23:02:00,
2013-04-21 13:12:00,81.0,65.0,-100.00,West,265,6.0,11.0,58,0.00,,,0.00,936.000000,,2013-04-21 23:12:00,
2013-04-21 13:43:00,81.0,65.0,-100.00,West,269,5.0,10.0,58,0.00,,,0.00,838.000000,,2013-04-21 23:43:00,
2013-04-21 13:52:00,81.0,65.0,-100.00,West,269,5.0,10.0,58,0.00,,,0.00,838.000000,,2013-04-21 23:52:00,
2013-04-21 14:01:00,81.0,65.0,-100.00,West,269,5.0,10.0,58,0.00,,,0.00,838.000000,,2013-04-22 00:01:00,
2013-04-21 14:11:00,81.0,65.0,-100.00,West,269,5.0,10.0,58,0.00,,,0.00,838.000000,,2013-04-22 00:11:00,
2013-04-21 14:21:00,81.0,65.0,-100.00,West,269,5.0,10.0,58,0.00,,,0.00,838.000000,,2013-04-22 00:21:00,
2013-04-21 14:42:00,82.0,63.0,-100.00,WSW,255,4.0,8.0,53,0.00,,,0.00,888.000000,,2013-04-22 00:42:00,
2013-04-21 14:52:00,82.0,63.0,-100.00,WSW,255,4.0,8.0,53,0.00,,,0.00,888.000000,,2013-04-22 00:52:00,
2013-04-21 15:01:00,82.0,63.0,-100.00,WSW,255,4.0,8.0,53,0.00,,,0.00,888.000000,,2013-04-22 01:01:00,
2013-04-21 15:11:00,82.0,63.0,-100.00,WSW,255,4.0,8.0,53,0.00,,,0.00,888.000000,,2013-04-22 01:11:00,
2013-04-21 15:21:00,82.0,63.0,-100.00,WSW,255,4.0,8.0,53,0.00,,,0.00,888.000000,,2013-04-22 01:21:00,
2013-04-21 15:42:00,82.0,63.0,-100.00,WSW,250,3.0,10.0,53,0.00,,,0.00,613.000000,,2013-04-22 01:42:00,
2013-04-21 15:52:00,82.0,63.0,-100.00,WSW,250,3.0,10.0,53,0.00,,,0.00,613.000000,,2013-04-22 01:52:00,
2013-04-21 16:01:00,82.0,63.0,-100.00,WSW,250,3.0,10.0,53,0.00,,,0.00,613.000000,,2013-04-22 02:01:00,
2013-04-21 16:11:00,82.0,63.0,-100.00,WSW,250,3.0,10.0,53,0.00,,,0.00,613.000000,,2013-04-22 02:11:00,
2013-04-21 16:21:00,82.0,63.0,-100.00,WSW,250,3.0,10.0,53,0.00,,,0.00,613.000000,,2013-04-22 02:21:00,
2013-04-21 16:22:00,82.0,65.0,-100.00,West,269,4.0,9.0,57,0.00,,,0.00,561.000000,,2013-04-22 02:22:00,
2013-04-21 16:42:00,82.0,65.0,-100.00,West,269,4.0,9.0,57,0.00,,,0.00,561.000000,,2013-04-22 02:42:00,
2013-04-21 16:52:00,82.0,65.0,-100.00,West,269,4.0,9.0,57,0.00,,,0.00,561.000000,,2013-04-22 02:52:00,
2013-04-21 17:02:00,82.0,65.0,-100.00,West,269,4.0,9.0,57,0.00,,,0.00,561.000000,,2013-04-22 03:02:00,
2013-04-21 17:11:00,82.0,65.0,-100.00,West,269,4.0,9.0,57,0.00,,,0.00,561.000000,,2013-04-22 03:11:00,
2013-04-21 17:22:00,82.0,64.0,-100.00,West,268,4.0,9.0,55,0.00,,,0.00,493.000000,,2013-04-22 03:22:00,
2013-04-21 17:43:00,82.0,64.0,-100.00,West,268,4.0,9.0,55,0.00,,,0.00,493.000000,,2013-04-22 03:43:00,
2013-04-21 17:52:00,82.0,64.0,-100.00,West,268,4.0,9.0,55,0.00,,,0.00,493.000000,,2013-04-22 03:52:00,
2013-04-21 18:02:00,82.0,64.0,-100.00,West,268,4.0,9.0,55,0.00,,,0.00,493.000000,,2013-04-22 04:02:00,
2013-04-21 18:12:00,82.0,64.0,-100.00,West,268,4.0,9.0,55,0.00,,,0.00,493.000000,,2013-04-22 04:12:00,
2013-04-21 18:22:00,79.0,64.0,-100.00,West,266,4.0,11.0,61,0.00,,,-99.99,167.000000,,2013-04-22 04:22:00,
2013-04-21 18:43:00,79.0,64.0,-100.00,West,266,4.0,11.0,61,0.00,,,-99.99,167.000000,,2013-04-22 04:43:00,
2013-04-21 18:52:00,79.0,64.0,-100.00,West,266,4.0,11.0,61,0.00,,,-99.99,167.000000,,2013-04-22 04:52:00,
2013-04-21 19:02:00,79.0,64.0,-100.00,West,266,4.0,11.0,61,0.00,,,-99.99,167.000000,,2013-04-22 05:02:00,
2013-04-21 19:11:00,79.0,64.0,-100.00,West,266,4.0,11.0,61,0.00,,,-99.99,167.000000,,2013-04-22 05:11:00,
2013-04-21 19:42:00,77.0,67.0,-100.00,West,273,3.0,8.0,71,0.00,,,0.00,33.000000,,2013-04-22 05:42:00,
2013-04-21 19:52:00,77.0,67.0,-100.00,West,273,3.0,8.0,71,0.00,,,0.00,33.000000,,2013-04-22 05:52:00,
2013-04-21 20:02:00,77.0,67.0,-100.00,West,273,3.0,8.0,71,0.00,,,0.00,33.000000,,2013-04-22 06:02:00,
2013-04-21 20:11:00,77.0,67.0,-100.00,West,273,3.0,8.0,71,0.00,,,0.00,33.000000,,2013-04-22 06:11:00,
2013-04-21 20:21:00,77.0,67.0,-100.00,West,273,3.0,8.0,71,0.00,,,0.00,33.000000,,2013-04-22 06:21:00,
2013-04-21 20:42:00,76.0,67.0,-100.00,NW,322,3.0,8.0,73,0.00,,,0.00,0.000000,,2013-04-22 06:42:00,
2013-04-21 20:52:00,76.0,67.0,-100.00,NW,322,3.0,8.0,73,0.00,,,0.00,0.000000,,2013-04-22 06:52:00,
2013-04-21 21:01:00,76.0,67.0,-100.00,NW,322,3.0,8.0,73,0.00,,,0.00,0.000000,,2013-04-22 07:01:00,
2013-04-21 21:11:00,76.0,67.0,-100.00,NW,322,3.0,8.0,73,0.00,,,0.00,0.000000,,2013-04-22 07:11:00,
2013-04-21 21:21:00,76.0,67.0,-100.00,NW,322,3.0,8.0,73,0.00,,,0.00,0.000000,,2013-04-22 07:21:00,
2013-04-21 21:42:00,75.0,65.0,-100.00,NNE,17,4.0,9.0,70,0.00,,,0.00,0.000000,,2013-04-22 07:42:00,
2013-04-21 21:52:00,75.0,65.0,-100.00,NNE,17,4.0,9.0,70,0.00,,,0.00,0.000000,,2013-04-22 07:52:00,
2013-04-21 22:01:00,75.0,65.0,-100.00,NNE,17,4.0,9.0,70,0.00,,,0.00,0.000000,,2013-04-22 08:01:00,
2013-04-21 22:11:00,75.0,65.0,-100.00,NNE,17,4.0,9.0,70,0.00,,,0.00,0.000000,,2013-04-22 08:11:00,
2013-04-21 22:21:00,75.0,65.0,-100.00,NNE,17,4.0,9.0,70,0.00,,,0.00,0.000000,,2013-04-22 08:21:00,
2013-04-21 22:42:00,75.0,64.0,-100.00,NE,40,3.0,7.0,68,0.00,,,0.00,0.000000,,2013-04-22 08:42:00,
2013-04-21 22:52:00,75.0,64.0,-100.00,NE,40,3.0,7.0,68,0.00,,,0.00,0.000000,,2013-04-22 08:52:00,
2013-04-21 23:01:00,75.0,64.0,-100.00,NE,40,3.0,7.0,68,0.00,,,0.00,0.000000,,2013-04-22 09:01:00,
2013-04-21 23:11:00,75.0,64.0,-100.00,NE,40,3.0,7.0,68,0.00,,,0.00,0.000000,,2013-04-22 09:11:00,
2013-04-21 23:21:00,75.0,64.0,-100.00,NE,40,3.0,7.0,68,0.00,,,0.00,0.000000,,2013-04-22 09:21:00,
2013-04-21 23:22:00,74.0,63.0,-100.00,ENE,58,2.0,6.0,68,0.00,,,0.00,0.000000,,2013-04-22 09:22:00,
2013-04-21 23:42:00,74.0,63.0,-100.00,ENE,58,2.0,6.0,68,0.00,,,0.00,0.000000,,2013-04-22 09:42:00,
2013-04-21 23:52:00,74.0,63.0,-100.00,ENE,58,2.0,6.0,68,0.00,,,0.00,0.000000,,2013-04-22 09:52:00,